Time;durP1;ratioP1;P1;durP2;ratioP2;P2;SDS_P1;SDS_P2;PMS_P1;PMS_P2;Temp;Humidity;BMP_temperature;BMP_pressure;BME280_temperature;BME280_humidity;BME280_pressure;Samples;Min_cycle;Max_cycle;Signal;HPM_P1;HPM_P2
2022/07/18 04:10:20;;;;;;;2.62;2.40;;;;;;;15.63;58.28;101303.00;5556261;32;314510;-85
2022/07/18 04:13:23;;;;;;;3.70;2.17;;;;;;;15.63;58.28;101303.00;5550476;32;34886;-85
2022/07/18 04:16:26;;;;;;;3.95;2.20;;;;;;;15.16;59.70;101308.25;5547103;32;34029;-85
2022/07/18 04:19:29;;;;;;;4.10;2.00;;;;;;;15.19;60.60;101305.38;5548877;32;32774;-85
2022/07/18 04:22:42;;;;;;;3.55;1.80;;;;;;;15.26;60.40;101305.94;5551876;32;32438;-85
2022/07/18 04:25:45;;;;;;;2.80;2.12;;;;;;;15.32;60.80;101310.06;5549680;32;34538;-85
2022/07/18 04:28:48;;;;;;;4.12;2.00;;;;;;;15.43;59.90;101309.50;5553471;32;33584;-85
2022/07/18 04:31:51;;;;;;;3.37;2.00;;;;;;;15.60;59.17;101314.72;5554747;32;34368;-85
2022/07/18 04:34:54;;;;;;;4.25;2.40;;;;;;;15.77;58.84;101308.44;5556643;32;34099;-85
2022/07/18 04:37:57;;;;;;;7.32;2.10;;;;;;;15.87;58.28;101311.47;5557164;32;33397;-86
2022/07/18 04:40:59;;;;;;;4.22;2.05;;;;;;;15.97;58.58;101317.19;5556077;32;35224;-89
2022/07/18 04:44:03;;;;;;;2.65;2.33;;;;;;;16.08;57.91;101316.53;5556910;32;34830;-89
2022/07/18 04:47:06;;;;;;;5.53;2.05;;;;;;;16.23;57.24;101312.13;5556363;32;33721;-90
2022/07/18 04:50:09;;;;;;;4.28;2.00;;;;;;;16.37;57.22;101311.31;5549394;32;34473;-87
2022/07/18 04:53:12;;;;;;;9.07;2.33;;;;;;;16.48;57.94;101317.81;5543003;32;34823;-86
2022/07/18 04:56:14;;;;;;;5.68;2.20;;;;;;;16.53;58.32;101315.72;5542937;32;33747;-86
2022/07/18 04:59:17;;;;;;;5.22;2.12;;;;;;;16.82;57.98;101316.66;5536962;32;34370;-86
2022/07/18 05:02:20;;;;;;;3.47;2.00;;;;;;;16.78;56.05;101317.78;5535747;32;34119;-86
2022/07/18 05:05:24;;;;;;;2.53;1.80;;;;;;;16.98;54.77;101311.22;5524610;32;33832;-86
2022/07/18 05:08:26;;;;;;;5.87;1.98;;;;;;;17.09;54.51;101312.38;5522959;32;34240;-86
2022/07/18 05:11:29;;;;;;;2.87;1.95;;;;;;;17.12;52.44;101309.53;5523245;32;34075;-86
2022/07/18 05:14:32;;;;;;;4.00;1.95;;;;;;;17.26;52.21;101311.34;5522940;32;33839;-85
2022/07/18 05:17:41;;;;;;;5.22;2.20;;;;;;;17.40;51.35;101307.75;5523910;32;33503;-86
2022/07/18 05:20:44;;;;;;;3.65;1.90;;;;;;;17.58;51.26;101315.59;5532522;32;34674;-86
2022/07/18 05:23:51;;;;;;;4.10;1.80;;;;;;;17.92;50.54;101316.91;5527358;32;34201;-86
2022/07/18 05:26:54;;;;;;;2.58;1.80;;;;;;;18.08;49.85;101315.94;5532008;32;34013;-86
2022/07/18 05:29:58;;;;;;;2.78;1.80;;;;;;;18.52;48.61;101316.59;5533943;32;35158;-86
2022/07/18 05:33:02;;;;;;;6.40;1.90;;;;;;;20.03;44.47;101321.22;5536243;32;34730;-86
2022/07/18 05:36:05;;;;;;;3.25;2.10;;;;;;;23.33;37.50;101318.03;5534030;32;34650;-86
2022/07/18 05:39:09;;;;;;;4.50;1.73;;;;;;;25.42;33.15;101315.88;5532293;32;34324;-87
2022/07/18 05:42:11;;;;;;;5.43;1.73;;;;;;;27.28;30.32;101315.22;5542935;32;34351;-86
2022/07/18 05:45:14;;;;;;;2.05;1.48;;;;;;;27.48;28.67;101316.78;5540579;32;34829;-87
2022/07/18 05:48:17;;;;;;;2.60;1.80;;;;;;;29.33;26.81;101316.38;5520986;32;34853;-87
2022/07/18 05:51:20;;;;;;;2.30;1.70;;;;;;;31.07;25.24;101316.03;5531113;32;33181;-87
2022/07/18 05:54:23;;;;;;;5.30;2.30;;;;;;;29.86;25.36;101320.38;5528301;32;34466;-87
2022/07/18 05:57:26;;;;;;;3.37;1.60;;;;;;;28.60;27.24;101312.84;5529768;32;33811;-87
2022/07/18 06:00:29;;;;;;;4.03;1.87;;;;;;;29.16;26.81;101310.16;5523880;32;33669;-87
2022/07/18 06:03:33;;;;;;;3.12;1.70;;;;;;;29.22;25.65;101303.12;5516150;32;32829;-87
2022/07/18 06:06:35;;;;;;;6.95;1.77;;;;;;;29.80;25.36;101301.94;5516060;32;34235;-86
2022/07/18 06:09:38;;;;;;;10.68;1.60;;;;;;;31.29;23.76;101300.56;5524959;32;34237;-85
2022/07/18 06:12:44;;;;;;;3.10;1.60;;;;;;;32.87;21.75;101297.13;5512358;32;35974;-88
2022/07/18 06:15:47;;;;;;;4.05;1.60;;;;;;;33.78;20.81;101297.91;5521301;32;34003;-87
2022/07/18 06:18:49;;;;;;;4.22;1.70;;;;;;;33.92;20.66;101300.69;5528256;32;33847;-87
2022/07/18 06:21:52;;;;;;;5.12;1.50;;;;;;;31.92;22.25;101304.63;5529500;32;34183;-87
2022/07/18 06:24:55;;;;;;;3.92;1.67;;;;;;;30.30;24.49;101302.44;5523317;32;33991;-87
2022/07/18 06:27:58;;;;;;;7.28;1.70;;;;;;;32.43;22.47;101310.16;5515628;32;32879;-88
2022/07/18 06:31:01;;;;;;;2.70;1.37;;;;;;;33.65;21.14;101300.63;5530154;32;33837;-88
2022/07/18 06:34:05;;;;;;;2.20;1.45;;;;;;;35.30;19.67;101306.41;5533848;32;33675;-87
2022/07/18 06:37:08;;;;;;;4.32;1.50;;;;;;;34.94;19.66;101305.06;5533219;32;35267;-86
2022/07/18 06:40:11;;;;;;;2.05;1.23;;;;;;;33.63;21.34;101300.00;5526410;32;33579;-87
2022/07/18 06:43:19;;;;;;;3.42;1.58;;;;;;;32.73;21.90;101304.44;5544015;32;34833;-86
2022/07/18 06:46:25;;;;;;;2.80;1.62;;;;;;;31.36;23.84;101297.03;5540872;32;33013;-87
2022/07/18 06:49:28;;;;;;;4.20;1.87;;;;;;;29.72;26.10;101298.25;5545093;32;32735;-87
2022/07/18 06:52:45;;;;;;;5.78;1.67;;;;;;;28.27;27.67;101296.50;5545202;32;32651;-87
2022/07/18 06:59:40;;;;;;;3.95;1.60;;;;;;;28.01;28.69;101281.16;4782429;29;20079;-88
2022/07/18 07:02:50;;;;;;;3.30;1.83;;;;;;;26.87;30.17;101274.13;5538119;32;34836;-87
2022/07/18 07:05:53;;;;;;;10.90;1.80;;;;;;;27.44;29.52;101279.00;5531864;32;33953;-87
2022/07/18 07:08:56;;;;;;;2.67;1.98;;;;;;;27.73;28.95;101276.88;5522012;32;33494;-88
2022/07/18 07:11:59;;;;;;;5.68;1.62;;;;;;;27.38;28.91;101278.78;5522865;32;34359;-85
2022/07/18 07:15:02;;;;;;;3.60;1.60;;;;;;;27.15;29.93;101268.53;5528939;32;33531;-87
2022/07/18 07:18:05;;;;;;;8.90;1.65;;;;;;;27.09;30.25;101261.84;5513916;32;33376;-86
2022/07/18 07:21:08;;;;;;;3.22;1.70;;;;;;;27.61;29.74;101272.75;5557316;26;33864;-87
2022/07/18 07:24:11;;;;;;;2.60;1.48;;;;;;;28.04;29.20;101267.16;5554702;32;32423;-88
2022/07/18 07:27:14;;;;;;;7.40;1.50;;;;;;;27.91;26.38;101259.50;5535238;32;33772;-87
2022/07/18 07:30:17;;;;;;;17.12;1.70;;;;;;;28.59;25.73;101259.28;5528895;32;33556;-87
2022/07/18 07:33:20;;;;;;;4.45;1.58;;;;;;;28.02;23.87;101251.00;5530928;32;32538;-85
2022/07/18 07:36:23;;;;;;;3.37;1.40;;;;;;;27.87;26.18;101248.09;5535919;32;34458;-84
2022/07/18 07:39:26;;;;;;;5.82;1.70;;;;;;;27.79;24.50;101246.22;5540724;32;33874;-87
2022/07/18 07:42:28;;;;;;;4.50;1.67;;;;;;;27.52;25.45;101252.78;5610403;26;34562;-86
2022/07/18 07:45:31;;;;;;;2.97;1.33;;;;;;;27.48;24.81;101255.00;5568696;32;33480;-85
2022/07/18 07:48:34;;;;;;;3.67;1.70;;;;;;;28.16;25.40;101260.34;5568594;32;34527;-87
2022/07/18 07:51:37;;;;;;;1.37;1.20;;;;;;;28.21;24.82;101247.03;5560550;32;34622;-87
2022/07/18 07:54:40;;;;;;;2.37;1.50;;;;;;;28.73;23.99;101247.66;5555334;32;35101;-85
2022/07/18 07:57:43;;;;;;;1.50;1.40;;;;;;;29.05;23.52;101247.72;5556292;32;32905;-85
2022/07/18 08:00:46;;;;;;;4.20;1.60;;;;;;;29.51;23.10;101240.66;5557508;32;33023;-86
2022/07/18 08:03:50;;;;;;;1.52;1.40;;;;;;;29.36;22.76;101244.13;5554692;32;34750;-86
2022/07/18 08:06:52;;;;;;;5.45;1.58;;;;;;;28.90;22.88;101250.34;5549996;32;35059;-86
2022/07/18 08:09:55;;;;;;;2.35;1.20;;;;;;;28.66;23.80;101249.38;5597803;26;34155;-85
2022/07/18 08:12:58;;;;;;;1.83;1.40;;;;;;;28.96;23.75;101243.34;5531481;32;33703;-84
2022/07/18 08:16:01;;;;;;;2.08;1.45;;;;;;;29.72;22.66;101248.22;5532747;32;33013;-84
2022/07/18 08:19:04;;;;;;;3.70;1.37;;;;;;;29.58;23.47;101252.56;5528365;32;34194;-83
2022/07/18 08:22:07;;;;;;;2.20;1.55;;;;;;;29.17;22.72;101246.28;5528051;32;33833;-85
2022/07/18 08:25:32;;;;;;;4.57;1.20;;;;;;;29.22;22.43;101248.50;5528842;32;34122;-87
2022/07/18 08:28:41;;;;;;;3.65;1.37;;;;;;;28.33;23.18;101247.59;5642153;26;34722;-87
2022/07/18 08:31:45;;;;;;;;;;;;;;;28.40;23.86;101245.00;5571092;26;32676;-85
2022/07/18 08:34:47;;;;;;;2.75;1.75;;;;;;;28.09;23.93;101243.81;5529618;32;34073;-86
2022/07/18 08:37:50;;;;;;;2.00;1.80;;;;;;;28.11;23.90;101249.94;5529650;32;33822;-86
2022/07/18 08:40:54;;;;;;;3.47;1.40;;;;;;;28.52;23.35;101245.50;5562170;26;34059;-87
2022/07/18 08:43:58;;;;;;;1.60;1.50;;;;;;;29.01;23.02;101246.38;5524561;32;32601;-86
2022/07/18 08:47:02;;;;;;;1.48;1.35;;;;;;;28.95;23.25;101245.19;5555875;26;34459;-85
2022/07/18 08:50:06;;;;;;;5.28;1.40;;;;;;;29.11;22.61;101241.53;5517571;32;34255;-86
2022/07/18 08:53:10;;;;;;;2.75;1.40;;;;;;;29.89;23.31;101248.06;5508908;32;34297;-86
2022/07/18 08:56:13;;;;;;;1.58;1.27;;;;;;;30.15;22.60;101239.50;5536640;26;33546;-86
2022/07/18 08:59:17;;;;;;;1.65;1.30;;;;;;;30.04;22.29;101242.63;5549379;32;35271;-86
2022/07/18 09:02:25;;;;;;;3.72;1.30;;;;;;;30.69;21.56;101239.47;5548396;32;34615;-85
2022/07/18 09:05:29;;;;;;;3.42;1.90;;;;;;;30.62;21.64;101245.66;5629653;26;33129;-86
2022/07/18 09:08:37;;;;;;;4.47;1.62;;;;;;;30.50;20.84;101249.91;5492340;32;33837;-86
2022/07/18 09:11:54;;;;;;;1.50;1.40;;;;;;;31.19;20.53;101246.00;5491722;32;32397;-85
2022/07/18 09:15:06;;;;;;;4.22;1.83;;;;;;;30.76;20.17;101241.25;5506537;32;33964;-85
2022/07/18 09:18:09;;;;;;;3.10;1.50;;;;;;;31.67;19.80;101243.81;5501518;32;33984;-85
2022/07/18 09:21:37;;;;;;;3.33;1.40;;;;;;;32.80;19.10;101240.25;5503497;32;33595;-84
2022/07/18 09:24:56;;;;;;;2.75;1.55;;;;;;;32.75;18.80;101234.53;5492193;32;32286;-86
2022/07/18 09:27:59;;;;;;;3.45;1.42;;;;;;;33.44;18.57;101233.72;5491684;32;33783;-90
2022/07/18 09:31:27;;;;;;;3.95;1.40;;;;;;;33.80;17.56;101232.53;5492030;32;33780;-91
2022/07/18 09:34:37;;;;;;;8.30;1.70;;;;;;;33.34;18.62;101237.69;5493273;32;32582;-87
2022/07/18 09:38:11;;;;;;;2.85;1.42;;;;;;;33.79;18.04;101243.72;5510899;32;34301;-86
2022/07/18 09:41:14;;;;;;;5.45;1.42;;;;;;;32.93;18.45;101233.94;5491005;32;34623;-86
2022/07/18 09:44:18;;;;;;;4.53;1.33;;;;;;;34.22;17.68;101235.06;5495568;32;33947;-86
2022/07/18 09:47:21;;;;;;;5.80;1.70;;;;;;;34.78;17.17;101230.06;5491338;32;33648;-86
2022/07/18 09:50:30;;;;;;;2.75;1.50;;;;;;;36.28;15.59;101228.03;5490514;32;34011;-86
2022/07/18 09:53:37;;;;;;;3.80;1.40;;;;;;;36.12;15.85;101226.72;5489621;32;32449;-85
2022/07/18 09:56:42;;;;;;;4.20;1.40;;;;;;;37.17;14.96;101226.81;5494154;32;35293;-85
2022/07/18 09:59:45;;;;;;;6.15;1.40;;;;;;;36.91;15.16;101228.00;5489431;32;34498;-85
2022/07/18 10:02:51;;;;;;;7.40;1.92;;;;;;;37.29;14.55;101229.63;5501722;32;34632;-85
2022/07/18 10:05:56;;;;;;;1.50;1.40;;;;;;;36.05;15.68;101228.69;5519980;32;34148;-85
2022/07/18 10:08:59;;;;;;;2.62;1.48;;;;;;;35.37;15.79;101222.81;5516235;32;32728;-85
2022/07/18 10:12:02;;;;;;;2.78;1.80;;;;;;;35.17;16.60;101221.88;5490986;32;34205;-85
2022/07/18 10:15:05;;;;;;;2.20;1.33;;;;;;;35.97;15.82;101218.75;5498542;32;33078;-85
2022/07/18 10:18:14;;;;;;;5.30;1.50;;;;;;;35.82;15.43;101214.44;5502789;32;33365;-86
2022/07/18 10:21:20;;;;;;;2.90;1.30;;;;;;;35.25;15.92;101212.50;5510259;32;32413;-85
2022/07/18 10:24:25;;;;;;;3.15;1.65;;;;;;;34.80;16.23;101210.59;5507412;32;33867;-86
2022/07/18 10:27:49;;;;;;;3.10;1.25;;;;;;;35.92;15.59;101204.78;5503307;32;32849;-85
2022/07/18 10:30:54;;;;;;;2.70;1.50;;;;;;;36.87;14.69;101204.66;5521224;32;34037;-90
2022/07/18 10:34:06;;;;;;;1.48;1.10;;;;;;;37.88;14.17;101203.16;5503502;32;33367;-85
2022/07/18 10:37:11;;;;;;;1.40;1.30;;;;;;;39.55;11.69;101194.41;5504728;32;34326;-85
2022/07/18 10:40:28;;;;;;;2.05;1.40;;;;;;;38.44;12.42;101194.47;5505390;32;34109;-85
2022/07/18 10:43:34;;;;;;;3.25;1.52;;;;;;;37.96;12.86;101182.59;5504433;32;34801;-86
2022/07/18 10:47:02;;;;;;;1.50;1.40;;;;;;;37.02;13.70;101180.22;5519834;32;32856;-86
2022/07/18 10:50:06;;;;;;;1.33;1.17;;;;;;;34.99;14.96;101185.91;5496292;32;33910;-84
2022/07/18 10:53:11;;;;;;;1.77;1.20;;;;;;;35.65;14.17;101181.06;5509726;32;34253;-84
2022/07/18 10:56:14;;;;;;;3.75;1.60;;;;;;;35.00;14.83;101176.56;5513130;32;33727;-84
2022/07/18 10:59:18;;;;;;;2.20;1.50;;;;;;;34.97;15.06;101169.56;5503257;32;33547;-84
2022/07/18 11:02:30;;;;;;;2.55;1.55;;;;;;;34.56;15.68;101166.13;5505337;32;32299;-85
2022/07/18 11:05:50;;;;;;;3.90;1.65;;;;;;;33.90;16.23;101165.22;5505386;32;34138;-87
2022/07/18 11:08:53;;;;;;;4.50;1.55;;;;;;;32.91;16.79;101158.28;5509259;32;34582;-85
2022/07/18 11:12:20;;;;;;;1.85;1.45;;;;;;;32.97;16.92;101160.22;5506230;32;34108;-85
2022/07/18 11:15:23;;;;;;;1.87;1.60;;;;;;;34.79;15.53;101145.53;5505027;32;34775;-87
2022/07/18 11:18:26;;;;;;;1.25;1.15;;;;;;;34.90;15.13;101142.03;5498009;32;33741;-87
2022/07/18 11:21:33;;;;;;;3.05;1.30;;;;;;;34.30;15.32;101142.28;5500537;32;34026;-86
2022/07/18 11:24:41;;;;;;;1.75;1.37;;;;;;;33.17;16.78;101140.19;5508026;32;32956;-90
2022/07/18 11:27:46;;;;;;;3.72;1.25;;;;;;;33.25;16.77;101128.16;5507592;32;34112;-86
2022/07/18 11:31:06;;;;;;;1.55;1.30;;;;;;;31.93;17.20;101135.41;5507711;32;32872;-86
2022/07/18 11:34:09;;;;;;;2.72;1.50;;;;;;;32.21;17.78;101129.88;5507199;32;35330;-86
2022/07/18 11:37:13;;;;;;;5.32;2.10;;;;;;;32.55;17.35;101121.84;5508757;32;34048;-86
2022/07/18 11:40:17;;;;;;;2.40;1.20;;;;;;;32.23;18.21;101119.53;5503668;32;33135;-86
2022/07/18 11:43:26;;;;;;;1.48;1.37;;;;;;;32.36;17.32;101120.66;5500491;32;34164;-85
2022/07/18 11:46:29;;;;;;;2.83;1.48;;;;;;;32.54;16.81;101107.25;5506382;32;33027;-86
2022/07/18 11:49:32;;;;;;;1.85;1.33;;;;;;;31.93;17.40;101100.56;5506533;32;33557;-85
2022/07/18 11:52:35;;;;;;;3.58;1.65;;;;;;;31.95;17.74;101103.12;5504178;32;33806;-86
2022/07/18 11:55:38;;;;;;;1.95;1.45;;;;;;;32.62;17.01;101097.16;5507579;32;34300;-86
2022/07/18 11:58:43;;;;;;;3.75;1.48;;;;;;;32.14;17.28;101096.06;5506209;32;33500;-86
2022/07/18 12:01:52;;;;;;;1.27;1.17;;;;;;;32.62;16.49;101094.41;5511423;32;34204;-86
2022/07/18 12:04:55;;;;;;;1.45;1.27;;;;;;;32.77;16.27;101086.84;5515784;32;33235;-86
2022/07/18 12:07:58;;;;;;;2.28;1.42;;;;;;;32.60;16.23;101089.12;5512653;32;33177;-86
2022/07/18 12:11:11;;;;;;;4.07;1.62;;;;;;;32.06;16.84;101085.25;5511840;32;34394;-85
2022/07/18 12:14:15;;;;;;;3.00;1.50;;;;;;;32.25;16.92;101079.03;5512113;32;34789;-85
2022/07/18 12:17:18;;;;;;;2.00;1.27;;;;;;;32.60;16.72;101077.28;5508509;32;34009;-85
2022/07/18 12:20:22;;;;;;;2.17;1.35;;;;;;;32.63;16.30;101076.88;5507305;32;34848;-85
2022/07/18 12:23:28;;;;;;;5.05;1.25;;;;;;;31.97;17.46;101082.66;5509827;32;33324;-86
2022/07/18 12:26:31;;;;;;;4.20;1.30;;;;;;;31.89;17.03;101069.12;5508563;32;33981;-86
2022/07/18 12:30:04;;;;;;;1.87;1.25;;;;;;;32.12;16.61;101068.81;5508581;32;34717;-86
2022/07/18 12:33:09;;;;;;;1.48;1.27;;;;;;;31.89;16.82;101068.28;5506970;32;33479;-86
2022/07/18 12:36:12;;;;;;;2.45;1.35;;;;;;;31.64;16.91;101072.31;5509049;32;33593;-86
2022/07/18 12:39:25;;;;;;;2.83;1.62;;;;;;;31.60;17.22;101066.38;5508670;32;33964;-88
2022/07/18 12:42:34;;;;;;;1.40;1.30;;;;;;;31.07;17.75;101069.47;5508571;32;34311;-85
2022/07/18 12:45:38;;;;;;;3.33;1.48;;;;;;;31.20;17.60;101064.13;5509505;32;34166;-85
2022/07/18 12:48:42;;;;;;;2.20;1.20;;;;;;;31.20;17.83;101066.88;5507430;32;34065;-86
2022/07/18 12:51:44;;;;;;;2.03;1.12;;;;;;;30.91;17.87;101065.09;5503513;32;33540;-86
2022/07/18 12:54:47;;;;;;;2.10;1.50;;;;;;;31.22;17.78;101052.12;5506843;32;33671;-86
2022/07/18 12:57:50;;;;;;;3.50;1.20;;;;;;;31.43;17.29;101045.78;5507515;32;34218;-85
2022/07/18 13:00:55;;;;;;;11.35;2.17;;;;;;;31.38;16.90;101046.41;5506988;32;33056;-85
2022/07/18 13:04:05;;;;;;;1.60;1.30;;;;;;;30.72;18.27;101044.69;5494024;32;33854;-86
2022/07/18 13:07:08;;;;;;;2.58;1.23;;;;;;;30.50;18.34;101039.16;5504692;32;34627;-86
2022/07/18 13:10:11;;;;;;;3.92;1.58;;;;;;;30.16;18.58;101037.91;5492220;32;34359;-86
2022/07/18 13:13:14;;;;;;;3.90;1.58;;;;;;;30.68;19.07;101038.78;5509955;32;32443;-85
2022/07/18 13:16:17;;;;;;;1.12;1.00;;;;;;;30.89;19.29;101037.94;5509119;32;34653;-85
2022/07/18 13:19:20;;;;;;;2.08;1.42;;;;;;;30.76;18.52;101037.78;5508061;32;34536;-86
2022/07/18 13:22:23;;;;;;;1.60;1.20;;;;;;;30.66;18.31;101030.72;5507442;32;34017;-86
2022/07/18 13:25:26;;;;;;;2.03;0.93;;;;;;;30.58;18.03;101038.19;5495763;32;33946;-86
2022/07/18 13:28:29;;;;;;;4.18;1.20;;;;;;;30.20;19.33;101033.75;5516942;32;32723;-86
2022/07/18 13:31:32;;;;;;;1.77;1.27;;;;;;;30.10;18.93;101034.03;5498041;32;33988;-86
2022/07/18 13:34:36;;;;;;;2.95;1.30;;;;;;;30.30;18.24;101023.34;5506169;32;35151;-86
2022/07/18 13:37:43;;;;;;;1.95;1.30;;;;;;;30.38;18.33;101025.97;5500664;32;34670;-86
2022/07/18 13:40:45;;;;;;;2.35;1.12;;;;;;;30.28;18.44;101021.84;5490815;32;33537;-85
2022/07/18 13:43:48;;;;;;;2.17;1.20;;;;;;;29.95;18.42;101023.06;5491095;32;33671;-86
2022/07/18 13:46:51;;;;;;;1.30;1.20;;;;;;;29.93;18.74;101015.09;5491554;32;34085;-86
2022/07/18 13:49:54;;;;;;;7.35;1.60;;;;;;;29.81;19.16;101001.03;5489265;32;33458;-86
2022/07/18 13:52:57;;;;;;;1.77;1.37;;;;;;;29.63;19.39;101001.41;5500884;32;36214;-86
2022/07/18 13:56:00;;;;;;;1.52;1.20;;;;;;;30.04;19.42;101002.81;5498554;32;33925;-86
2022/07/18 13:59:02;;;;;;;8.73;1.58;;;;;;;30.20;19.00;100999.03;5497401;32;33806;-86
2022/07/18 14:02:05;;;;;;;2.75;1.30;;;;;;;29.63;18.79;100990.47;5511248;32;34339;-86
2022/07/18 14:05:08;;;;;;;2.92;1.10;;;;;;;29.53;19.51;101000.84;5511797;32;34473;-85
2022/07/18 14:08:16;;;;;;;2.80;1.33;;;;;;;29.94;19.26;100994.03;5511782;32;34583;-85
2022/07/18 14:11:19;;;;;;;2.60;1.10;;;;;;;29.89;18.83;100997.34;5512727;32;33952;-86
2022/07/18 14:14:21;;;;;;;1.35;1.25;;;;;;;29.86;19.42;101000.44;5507521;32;34527;-85
2022/07/18 14:17:24;;;;;;;2.60;1.30;;;;;;;30.04;19.17;100994.59;5502393;32;33893;-85
2022/07/18 14:20:27;;;;;;;3.45;1.50;;;;;;;30.03;19.14;100989.31;5510391;32;33748;-86
2022/07/18 14:23:30;;;;;;;3.08;1.15;;;;;;;30.05;18.89;100984.50;5505236;32;33662;-87
2022/07/18 14:26:32;;;;;;;1.55;1.30;;;;;;;29.94;18.99;100985.84;5500521;32;36551;-87
2022/07/18 14:29:36;;;;;;;3.05;1.40;;;;;;;30.22;19.10;100993.37;5492660;32;34320;-86
2022/07/18 14:32:39;;;;;;;2.28;1.40;;;;;;;29.99;18.48;100986.97;5492174;32;34228;-86
2022/07/18 14:35:42;;;;;;;6.07;1.25;;;;;;;29.97;18.59;100986.31;5491758;32;33968;-86
2022/07/18 14:38:45;;;;;;;2.47;1.12;;;;;;;30.05;18.50;100981.75;5493132;32;34017;-87
2022/07/18 14:41:48;;;;;;;2.87;1.30;;;;;;;29.76;18.74;100976.13;5491562;32;34637;-90
2022/07/18 14:44:52;;;;;;;1.87;1.17;;;;;;;29.50;19.42;100969.25;5490221;32;33479;-90
2022/07/18 14:47:55;;;;;;;3.37;1.48;;;;;;;29.55;19.31;100964.09;5491210;32;34172;-90
2022/07/18 14:50:57;;;;;;;3.40;1.30;;;;;;;29.67;19.30;100971.81;5489943;32;33878;-91
2022/07/18 14:54:00;;;;;;;2.25;1.20;;;;;;;29.55;19.07;100957.75;5492367;32;33930;-87
2022/07/18 14:57:03;;;;;;;2.72;1.30;;;;;;;29.51;19.14;100954.56;5497727;32;33937;-87
2022/07/18 15:00:09;;;;;;;2.75;1.58;;;;;;;29.71;18.95;100959.44;5514036;32;33581;-87
2022/07/18 15:03:13;;;;;;;1.10;1.00;;;;;;;29.57;19.12;100953.81;5512284;32;32601;-87
2022/07/18 15:06:37;;;;;;;1.30;1.20;;;;;;;29.77;19.23;100949.66;5510285;32;34236;-87
2022/07/18 15:09:39;;;;;;;2.70;1.20;;;;;;;29.79;18.88;100950.31;5513068;32;34242;-87
2022/07/18 15:12:42;;;;;;;1.90;1.20;;;;;;;29.55;19.52;100949.56;5527653;32;33196;-87
2022/07/18 15:15:47;;;;;;;1.62;1.08;;;;;;;29.82;19.10;100942.56;5528415;32;33905;-87
